sensor_id;sensor_type;location;lat;lon;timestamp;pressure;altitude;pressure_sealevel;temperature;humidity
72855;BME280;60991;51.278;22.550;2023-02-28T00:00:57;100493.59;;;2.32;47.81
72855;BME280;60991;51.278;22.550;2023-02-28T00:02:27;100490.31;;;2.30;48.29
72855;BME280;60991;51.278;22.550;2023-02-28T00:03:57;100483.72;;;2.26;48.09
72855;BME280;60991;51.278;22.550;2023-02-28T00:05:28;100496.00;;;2.25;47.67
72855;BME280;60991;51.278;22.550;2023-02-28T00:06:58;100482.41;;;2.22;47.40
72855;BME280;60991;51.278;22.550;2023-02-28T00:08:29;100492.06;;;2.21;47.96
72855;BME280;60991;51.278;22.550;2023-02-28T00:09:59;100493.22;;;2.19;48.25
72855;BME280;60991;51.278;22.550;2023-02-28T00:11:29;100492.38;;;2.18;48.24
72855;BME280;60991;51.278;22.550;2023-02-28T00:13:02;100489.91;;;2.17;48.82
72855;BME280;60991;51.278;22.550;2023-02-28T00:14:33;100490.22;;;2.14;48.13
72855;BME280;60991;51.278;22.550;2023-02-28T00:16:11;100494.78;;;2.12;48.10
72855;BME280;60991;51.278;22.550;2023-02-28T00:17:42;100490.22;;;2.14;48.49
72855;BME280;60991;51.278;22.550;2023-02-28T00:19:13;100492.19;;;2.12;49.09
72855;BME280;60991;51.278;22.550;2023-02-28T00:20:43;100487.09;;;2.10;49.19
72855;BME280;60991;51.278;22.550;2023-02-28T00:22:15;100484.63;;;2.08;49.19
72855;BME280;60991;51.278;22.550;2023-02-28T00:23:46;100488.38;;;2.06;48.87
72855;BME280;60991;51.278;22.550;2023-02-28T00:25:20;100487.88;;;2.02;49.10
72855;BME280;60991;51.278;22.550;2023-02-28T00:26:50;100491.47;;;2.01;48.66
72855;BME280;60991;51.278;22.550;2023-02-28T00:28:21;100488.03;;;2.01;49.55
72855;BME280;60991;51.278;22.550;2023-02-28T00:29:51;100484.59;;;2.00;48.93
72855;BME280;60991;51.278;22.550;2023-02-28T00:31:22;100489.00;;;2.00;49.41
72855;BME280;60991;51.278;22.550;2023-02-28T00:32:52;100490.81;;;1.99;49.69
72855;BME280;60991;51.278;22.550;2023-02-28T00:34:22;100483.25;;;1.96;49.48
72855;BME280;60991;51.278;22.550;2023-02-28T00:36:01;100487.66;;;1.96;49.77
72855;BME280;60991;51.278;22.550;2023-02-28T00:37:31;100490.97;;;1.98;49.19
72855;BME280;60991;51.278;22.550;2023-02-28T00:39:02;100489.31;;;1.97;48.99
72855;BME280;60991;51.278;22.550;2023-02-28T00:40:32;100490.44;;;1.94;49.35
72855;BME280;60991;51.278;22.550;2023-02-28T00:42:03;100486.63;;;1.89;49.59
72855;BME280;60991;51.278;22.550;2023-02-28T00:43:35;100494.00;;;1.85;49.84
72855;BME280;60991;51.278;22.550;2023-02-28T00:45:06;100489.88;;;1.83;49.62
72855;BME280;60991;51.278;22.550;2023-02-28T00:46:36;100484.81;;;1.81;49.83
72855;BME280;60991;51.278;22.550;2023-02-28T00:48:06;100481.22;;;1.82;49.89
72855;BME280;60991;51.278;22.550;2023-02-28T00:49:37;100489.22;;;1.81;50.04
72855;BME280;60991;51.278;22.550;2023-02-28T00:51:07;100483.97;;;1.81;50.38
72855;BME280;60991;51.278;22.550;2023-02-28T00:52:37;100485.78;;;1.80;49.55
72855;BME280;60991;51.278;22.550;2023-02-28T00:54:07;100482.34;;;1.80;49.57
72855;BME280;60991;51.278;22.550;2023-02-28T00:55:37;100489.38;;;1.79;49.98
72855;BME280;60991;51.278;22.550;2023-02-28T00:57:08;100494.75;;;1.78;50.01
72855;BME280;60991;51.278;22.550;2023-02-28T00:58:38;100486.91;;;1.78;50.18
72855;BME280;60991;51.278;22.550;2023-02-28T01:00:09;100485.25;;;1.77;50.59
72855;BME280;60991;51.278;22.550;2023-02-28T01:01:40;100489.81;;;1.74;50.26
72855;BME280;60991;51.278;22.550;2023-02-28T01:03:11;100491.63;;;1.74;50.41
72855;BME280;60991;51.278;22.550;2023-02-28T01:04:41;100490.94;;;1.72;50.62
72855;BME280;60991;51.278;22.550;2023-02-28T01:06:11;100494.53;;;1.71;51.20
72855;BME280;60991;51.278;22.550;2023-02-28T01:07:41;100490.28;;;1.70;50.60
72855;BME280;60991;51.278;22.550;2023-02-28T01:09:12;100489.78;;;1.66;51.27
72855;BME280;60991;51.278;22.550;2023-02-28T01:10:42;100495.00;;;1.66;51.09
72855;BME280;60991;51.278;22.550;2023-02-28T01:12:12;100493.22;;;1.67;51.28
72855;BME280;60991;51.278;22.550;2023-02-28T01:13:44;100489.78;;;1.66;51.18
72855;BME280;60991;51.278;22.550;2023-02-28T01:15:14;100490.75;;;1.65;51.25
72855;BME280;60991;51.278;22.550;2023-02-28T01:16:45;100495.16;;;1.65;51.00
72855;BME280;60991;51.278;22.550;2023-02-28T01:18:15;100492.41;;;1.66;50.77
72855;BME280;60991;51.278;22.550;2023-02-28T01:19:45;100489.09;;;1.64;51.45
72855;BME280;60991;51.278;22.550;2023-02-28T01:21:18;100489.94;;;1.65;50.89
72855;BME280;60991;51.278;22.550;2023-02-28T01:22:48;100487.16;;;1.66;51.43
72855;BME280;60991;51.278;22.550;2023-02-28T01:24:19;100496.00;;;1.65;50.77
72855;BME280;60991;51.278;22.550;2023-02-28T01:25:52;100489.41;;;1.61;51.13
72855;BME280;60991;51.278;22.550;2023-02-28T01:27:22;100484.47;;;1.58;51.30
72855;BME280;60991;51.278;22.550;2023-02-28T01:28:53;100488.88;;;1.58;51.12
72855;BME280;60991;51.278;22.550;2023-02-28T01:30:23;100486.56;;;1.55;51.23
72855;BME280;60991;51.278;22.550;2023-02-28T01:31:53;100487.69;;;1.52;51.81
72855;BME280;60991;51.278;22.550;2023-02-28T01:33:24;100492.41;;;1.49;51.46
72855;BME280;60991;51.278;22.550;2023-02-28T01:34:54;100487.50;;;1.46;51.95
72855;BME280;60991;51.278;22.550;2023-02-28T01:36:24;100479.66;;;1.46;51.66
72855;BME280;60991;51.278;22.550;2023-02-28T01:37:55;100484.06;;;1.45;52.00
72855;BME280;60991;51.278;22.550;2023-02-28T01:39:25;100480.63;;;1.45;52.39
72855;BME280;60991;51.278;22.550;2023-02-28T01:40:56;100480.75;;;1.43;52.19
72855;BME280;60991;51.278;22.550;2023-02-28T01:42:26;100482.25;;;1.46;52.04
72855;BME280;60991;51.278;22.550;2023-02-28T01:45:47;100477.69;;;1.48;52.12
72855;BME280;60991;51.278;22.550;2023-02-28T01:47:18;100478.53;;;1.48;52.57
72855;BME280;60991;51.278;22.550;2023-02-28T01:48:56;100489.13;;;1.47;52.56
72855;BME280;60991;51.278;22.550;2023-02-28T01:50:32;100481.94;;;1.49;52.31
72855;BME280;60991;51.278;22.550;2023-02-28T01:52:05;100485.38;;;1.49;52.31
72855;BME280;60991;51.278;22.550;2023-02-28T01:53:43;100483.09;;;1.46;52.71
72855;BME280;60991;51.278;22.550;2023-02-28T01:55:16;100476.88;;;1.47;52.51
72855;BME280;60991;51.278;22.550;2023-02-28T01:56:53;100482.94;;;1.48;52.77
72855;BME280;60991;51.278;22.550;2023-02-28T01:58:24;100481.94;;;1.49;51.93
72855;BME280;60991;51.278;22.550;2023-02-28T01:59:57;100485.56;;;1.48;52.93
72855;BME280;60991;51.278;22.550;2023-02-28T02:01:30;100486.53;;;1.47;52.33
72855;BME280;60991;51.278;22.550;2023-02-28T02:03:06;100480.75;;;1.43;52.86
72855;BME280;60991;51.278;22.550;2023-02-28T02:04:41;100479.94;;;1.43;52.51
72855;BME280;60991;51.278;22.550;2023-02-28T02:06:13;100483.22;;;1.45;53.02
72855;BME280;60991;51.278;22.550;2023-02-28T02:07:46;100484.19;;;1.44;53.11
72855;BME280;60991;51.278;22.550;2023-02-28T02:09:17;100486.81;;;1.44;52.96
72855;BME280;60991;51.278;22.550;2023-02-28T02:10:57;100483.38;;;1.43;52.20
72855;BME280;60991;51.278;22.550;2023-02-28T02:12:53;100486.16;;;1.42;52.74
72855;BME280;60991;51.278;22.550;2023-02-28T02:14:40;100492.34;;;1.41;52.35
72855;BME280;60991;51.278;22.550;2023-02-28T02:18:04;100494.72;;;1.34;52.26
72855;BME280;60991;51.278;22.550;2023-02-28T02:22:02;100500.78;;;1.34;52.85
72855;BME280;60991;51.278;22.550;2023-02-28T02:34:28;100511.34;;;1.25;53.30
72855;BME280;60991;51.278;22.550;2023-02-28T02:37:42;100514.41;;;1.20;53.47
72855;BME280;60991;51.278;22.550;2023-02-28T02:39:30;100510.97;;;1.20;52.96
72855;BME280;60991;51.278;22.550;2023-02-28T02:41:14;100514.53;;;1.19;52.77
72855;BME280;60991;51.278;22.550;2023-02-28T02:42:51;100512.91;;;1.18;53.34
72855;BME280;60991;51.278;22.550;2023-02-28T02:44:36;100511.25;;;1.17;53.34
72855;BME280;60991;51.278;22.550;2023-02-28T02:46:14;100527.78;;;1.17;53.36
72855;BME280;60991;51.278;22.550;2023-02-28T02:47:46;100515.66;;;1.16;53.51
72855;BME280;60991;51.278;22.550;2023-02-28T02:49:24;100518.44;;;1.15;53.73
72855;BME280;60991;51.278;22.550;2023-02-28T02:50:58;100516.63;;;1.15;53.46
72855;BME280;60991;51.278;22.550;2023-02-28T02:52:35;100516.09;;;1.12;53.43
72855;BME280;60991;51.278;22.550;2023-02-28T02:54:12;100527.38;;;1.12;53.67
72855;BME280;60991;51.278;22.550;2023-02-28T02:55:48;100518.06;;;1.10;53.86
72855;BME280;60991;51.278;22.550;2023-02-28T02:57:36;100518.88;;;1.10;53.99
72855;BME280;60991;51.278;22.550;2023-02-28T02:59:11;100517.25;;;1.09;53.86
72855;BME280;60991;51.278;22.550;2023-02-28T03:00:47;100520.69;;;1.10;54.38
72855;BME280;60991;51.278;22.550;2023-02-28T03:02:20;100515.31;;;1.11;53.66
72855;BME280;60991;51.278;22.550;2023-02-28T03:03:51;100511.03;;;1.10;54.18
72855;BME280;60991;51.278;22.550;2023-02-28T03:05:28;100515.44;;;1.10;54.21
72855;BME280;60991;51.278;22.550;2023-02-28T03:07:00;100514.97;;;1.14;54.33
72855;BME280;60991;51.278;22.550;2023-02-28T03:08:34;100517.94;;;1.11;54.43
72855;BME280;60991;51.278;22.550;2023-02-28T03:10:26;100513.19;;;1.15;54.29
72855;BME280;60991;51.278;22.550;2023-02-28T03:11:57;100517.31;;;1.17;54.20
72855;BME280;60991;51.278;22.550;2023-02-28T03:15:26;100514.31;;;1.12;54.37
72855;BME280;60991;51.278;22.550;2023-02-28T03:17:21;100509.75;;;1.14;53.86
72855;BME280;60991;51.278;22.550;2023-02-28T03:26:22;100514.69;;;1.17;54.14
72855;BME280;60991;51.278;22.550;2023-02-28T03:29:35;100515.94;;;1.13;54.84
72855;BME280;60991;51.278;22.550;2023-02-28T03:31:21;100515.13;;;1.13;54.66
72855;BME280;60991;51.278;22.550;2023-02-28T03:33:03;100522.97;;;1.13;53.98
72855;BME280;60991;51.278;22.550;2023-02-28T03:34:41;100525.78;;;1.11;54.87
72855;BME280;60991;51.278;22.550;2023-02-28T03:36:18;100524.41;;;1.07;54.71
72855;BME280;60991;51.278;22.550;2023-02-28T03:37:53;100530.59;;;1.06;54.26
72855;BME280;60991;51.278;22.550;2023-02-28T03:39:30;100528.13;;;1.04;54.51
72855;BME280;60991;51.278;22.550;2023-02-28T03:41:08;100527.31;;;1.04;54.11
72855;BME280;60991;51.278;22.550;2023-02-28T03:42:43;100533.50;;;1.03;54.06
72855;BME280;60991;51.278;22.550;2023-02-28T03:44:28;100534.78;;;0.99;54.93
72855;BME280;60991;51.278;22.550;2023-02-28T03:46:02;100532.00;;;1.00;54.90
72855;BME280;60991;51.278;22.550;2023-02-28T03:47:40;100533.41;;;0.95;54.98
72855;BME280;60991;51.278;22.550;2023-02-28T03:49:17;100532.72;;;0.93;54.86
72855;BME280;60991;51.278;22.550;2023-02-28T03:50:54;100530.44;;;0.90;54.71
72855;BME280;60991;51.278;22.550;2023-02-28T03:52:33;100531.41;;;0.89;55.04
72855;BME280;60991;51.278;22.550;2023-02-28T03:54:09;100540.06;;;0.89;55.49
72855;BME280;60991;51.278;22.550;2023-02-28T03:55:45;100541.56;;;0.92;55.09
72855;BME280;60991;51.278;22.550;2023-02-28T03:59:07;100537.31;;;0.91;55.47
72855;BME280;60991;51.278;22.550;2023-02-28T04:00:46;100538.28;;;0.90;55.35
72855;BME280;60991;51.278;22.550;2023-02-28T04:02:17;100539.94;;;0.91;54.77
72855;BME280;60991;51.278;22.550;2023-02-28T04:03:47;100539.09;;;0.90;54.89
72855;BME280;60991;51.278;22.550;2023-02-28T04:05:20;100536.50;;;0.90;55.24
72855;BME280;60991;51.278;22.550;2023-02-28T04:07:01;100547.38;;;0.86;55.38
72855;BME280;60991;51.278;22.550;2023-02-28T04:08:31;100544.47;;;0.89;54.87
72855;BME280;60991;51.278;22.550;2023-02-28T04:10:03;100548.19;;;0.86;55.10
72855;BME280;60991;51.278;22.550;2023-02-28T04:11:38;100550.97;;;0.85;54.90
72855;BME280;60991;51.278;22.550;2023-02-28T04:13:09;100548.34;;;0.85;55.21
72855;BME280;60991;51.278;22.550;2023-02-28T04:14:39;100550.13;;;0.84;55.34
72855;BME280;60991;51.278;22.550;2023-02-28T04:16:10;100547.66;;;0.83;55.18
72855;BME280;60991;51.278;22.550;2023-02-28T04:17:40;100543.56;;;0.80;55.52
72855;BME280;60991;51.278;22.550;2023-02-28T04:19:12;100547.00;;;0.81;55.07
72855;BME280;60991;51.278;22.550;2023-02-28T04:20:43;100548.78;;;0.80;55.00
72855;BME280;60991;51.278;22.550;2023-02-28T04:22:13;100541.75;;;0.81;55.54
72855;BME280;60991;51.278;22.550;2023-02-28T04:23:43;100549.59;;;0.81;55.36
72855;BME280;60991;51.278;22.550;2023-02-28T04:25:13;100556.47;;;0.82;55.45
72855;BME280;60991;51.278;22.550;2023-02-28T04:26:46;100562.53;;;0.82;55.13
72855;BME280;60991;51.278;22.550;2023-02-28T04:28:17;100547.66;;;0.83;55.35
72855;BME280;60991;51.278;22.550;2023-02-28T04:29:47;100543.13;;;0.85;55.48
72855;BME280;60991;51.278;22.550;2023-02-28T04:31:17;100550.97;;;0.85;55.27
72855;BME280;60991;51.278;22.550;2023-02-28T04:32:48;100546.69;;;0.84;55.36
72855;BME280;60991;51.278;22.550;2023-02-28T04:34:18;100550.13;;;0.84;55.11
72855;BME280;60991;51.278;22.550;2023-02-28T04:35:48;100553.44;;;0.86;55.14
72855;BME280;60991;51.278;22.550;2023-02-28T04:37:27;100550.81;;;0.86;55.12
72855;BME280;60991;51.278;22.550;2023-02-28T04:38:57;100554.25;;;0.87;55.17
72855;BME280;60991;51.278;22.550;2023-02-28T04:40:27;100549.03;;;0.87;55.25
72855;BME280;60991;51.278;22.550;2023-02-28T04:41:58;100554.41;;;0.85;55.51
72855;BME280;60991;51.278;22.550;2023-02-28T04:43:28;100550.13;;;0.84;55.24
72855;BME280;60991;51.278;22.550;2023-02-28T04:44:59;100547.38;;;0.86;55.19
72855;BME280;60991;51.278;22.550;2023-02-28T04:46:29;100553.44;;;0.86;55.09
72855;BME280;60991;51.278;22.550;2023-02-28T04:47:59;100543.13;;;0.85;55.22
72855;BME280;60991;51.278;22.550;2023-02-28T04:49:30;100547.66;;;0.83;55.22
72855;BME280;60991;51.278;22.550;2023-02-28T04:51:06;100553.03;;;0.81;55.43
72855;BME280;60991;51.278;22.550;2023-02-28T04:52:36;100547.81;;;0.81;55.34
72855;BME280;60991;51.278;22.550;2023-02-28T04:54:07;100550.41;;;0.81;55.53
72855;BME280;60991;51.278;22.550;2023-02-28T04:55:37;100552.22;;;0.81;55.04
72855;BME280;60991;51.278;22.550;2023-02-28T04:57:07;100555.66;;;0.81;55.57
72855;BME280;60991;51.278;22.550;2023-02-28T04:58:38;100556.63;;;0.80;55.22
72855;BME280;60991;51.278;22.550;2023-02-28T05:00:09;100554.97;;;0.79;55.24
72855;BME280;60991;51.278;22.550;2023-02-28T05:01:40;100557.59;;;0.79;55.37
72855;BME280;60991;51.278;22.550;2023-02-28T05:03:10;100557.88;;;0.76;55.31
72855;BME280;60991;51.278;22.550;2023-02-28T05:04:40;100557.88;;;0.76;55.48
72855;BME280;60991;51.278;22.550;2023-02-28T05:06:12;100554.44;;;0.76;55.77
72855;BME280;60991;51.278;22.550;2023-02-28T05:07:42;100559.84;;;0.74;55.25
72855;BME280;60991;51.278;22.550;2023-02-28T05:09:13;100560.81;;;0.73;55.63
72855;BME280;60991;51.278;22.550;2023-02-28T05:10:43;100559.97;;;0.73;55.54
72855;BME280;60991;51.278;22.550;2023-02-28T05:12:13;100558.47;;;0.70;55.57
72855;BME280;60991;51.278;22.550;2023-02-28T05:13:43;100555.03;;;0.69;55.85
72855;BME280;60991;51.278;22.550;2023-02-28T05:15:15;100555.03;;;0.69;55.49
72855;BME280;60991;51.278;22.550;2023-02-28T05:16:45;100555.19;;;0.68;55.77
72855;BME280;60991;51.278;22.550;2023-02-28T05:18:15;100559.44;;;0.69;55.25
72855;BME280;60991;51.278;22.550;2023-02-28T05:19:46;100566.44;;;0.68;55.46
72855;BME280;60991;51.278;22.550;2023-02-28T05:21:31;100568.38;;;0.66;55.68
72855;BME280;60991;51.278;22.550;2023-02-28T05:23:02;100563.97;;;0.67;55.52
72855;BME280;60991;51.278;22.550;2023-02-28T05:24:32;100570.84;;;0.68;55.55
72855;BME280;60991;51.278;22.550;2023-02-28T05:26:02;100563.16;;;0.66;55.73
72855;BME280;60991;51.278;22.550;2023-02-28T05:27:32;100557.09;;;0.66;55.67
72855;BME280;60991;51.278;22.550;2023-02-28T05:29:03;100563.00;;;0.68;55.56
72855;BME280;60991;51.278;22.550;2023-02-28T05:30:33;100564.66;;;0.69;55.47
72855;BME280;60991;51.278;22.550;2023-02-28T05:32:04;100573.19;;;0.71;55.72
72855;BME280;60991;51.278;22.550;2023-02-28T05:33:34;100573.03;;;0.73;55.36
72855;BME280;60991;51.278;22.550;2023-02-28T05:35:05;100569.28;;;0.75;55.55
72855;BME280;60991;51.278;22.550;2023-02-28T05:36:36;100570.28;;;0.74;55.31
72855;BME280;60991;51.278;22.550;2023-02-28T05:38:07;100569.28;;;0.75;55.25
72855;BME280;60991;51.278;22.550;2023-02-28T05:39:37;100565.19;;;0.73;55.68
72855;BME280;60991;51.278;22.550;2023-02-28T05:41:09;100574.97;;;0.71;55.74
72855;BME280;60991;51.278;22.550;2023-02-28T05:42:39;100576.63;;;0.72;55.28
72855;BME280;60991;51.278;22.550;2023-02-28T05:44:10;100578.69;;;0.68;55.44
72855;BME280;60991;51.278;22.550;2023-02-28T05:45:40;100574.28;;;0.68;55.59
72855;BME280;60991;51.278;22.550;2023-02-28T05:47:11;100580.47;;;0.67;55.50
72855;BME280;60991;51.278;22.550;2023-02-28T05:48:42;100578.84;;;0.66;55.40
72855;BME280;60991;51.278;22.550;2023-02-28T05:50:12;100577.31;;;0.64;55.64
72855;BME280;60991;51.278;22.550;2023-02-28T05:51:43;100582.16;;;0.59;55.84
72855;BME280;60991;51.278;22.550;2023-02-28T05:53:13;100581.88;;;0.62;56.16
72855;BME280;60991;51.278;22.550;2023-02-28T05:54:44;100577.31;;;0.64;56.02
72855;BME280;60991;51.278;22.550;2023-02-28T05:56:15;100577.91;;;0.58;55.87
72855;BME280;60991;51.278;22.550;2023-02-28T05:57:46;100582.16;;;0.59;56.22
72855;BME280;60991;51.278;22.550;2023-02-28T05:59:16;100575.13;;;0.59;56.29
72855;BME280;60991;51.278;22.550;2023-02-28T06:00:47;100580.91;;;0.63;55.92
72855;BME280;60991;51.278;22.550;2023-02-28T06:02:17;100583.94;;;0.58;56.21
72855;BME280;60991;51.278;22.550;2023-02-28T06:03:48;100579.13;;;0.63;55.81
72855;BME280;60991;51.278;22.550;2023-02-28T06:05:18;100577.88;;;0.67;55.83
72855;BME280;60991;51.278;22.550;2023-02-28T06:06:49;100586.13;;;0.63;56.26
72855;BME280;60991;51.278;22.550;2023-02-28T06:08:20;100587.50;;;0.67;55.79
72855;BME280;60991;51.278;22.550;2023-02-28T06:09:50;100587.06;;;0.72;55.79
72855;BME280;60991;51.278;22.550;2023-02-28T06:11:20;100591.97;;;0.75;55.95
72855;BME280;60991;51.278;22.550;2023-02-28T06:12:51;100590.19;;;0.75;56.06
72855;BME280;60991;51.278;22.550;2023-02-28T06:14:21;100595.28;;;0.77;55.63
72855;BME280;60991;51.278;22.550;2023-02-28T06:15:51;100589.91;;;0.78;55.62
72855;BME280;60991;51.278;22.550;2023-02-28T06:17:21;100589.63;;;0.81;55.67
72855;BME280;60991;51.278;22.550;2023-02-28T06:18:52;100592.63;;;0.86;55.81
72855;BME280;60991;51.278;22.550;2023-02-28T06:20:23;100595.78;;;0.90;55.73
72855;BME280;60991;51.278;22.550;2023-02-28T06:21:54;100591.06;;;0.93;55.52
72855;BME280;60991;51.278;22.550;2023-02-28T06:23:25;100592.44;;;0.97;55.17
72855;BME280;60991;51.278;22.550;2023-02-28T06:24:55;100603.28;;;1.02;55.77
72855;BME280;60991;51.278;22.550;2023-02-28T06:26:26;100603.69;;;1.08;55.46
72855;BME280;60991;51.278;22.550;2023-02-28T06:27:56;100604.22;;;1.11;55.26
72855;BME280;60991;51.278;22.550;2023-02-28T06:29:26;100608.44;;;1.12;55.11
72855;BME280;60991;51.278;22.550;2023-02-28T06:30:57;100607.19;;;1.16;55.00
72855;BME280;60991;51.278;22.550;2023-02-28T06:32:27;100607.72;;;1.20;55.15
72855;BME280;60991;51.278;22.550;2023-02-28T06:33:57;100605.94;;;1.20;55.00
72855;BME280;60991;51.278;22.550;2023-02-28T06:35:28;100610.72;;;1.25;54.78
72855;BME280;60991;51.278;22.550;2023-02-28T06:36:58;100609.38;;;1.21;54.91
72855;BME280;60991;51.278;22.550;2023-02-28T06:38:28;100607.00;;;1.27;54.72
72855;BME280;60991;51.278;22.550;2023-02-28T06:39:58;100607.69;;;1.29;54.71
72855;BME280;60991;51.278;22.550;2023-02-28T06:41:30;100619.94;;;1.29;54.38
72855;BME280;60991;51.278;22.550;2023-02-28T06:43:01;100608.66;;;1.28;54.25
72855;BME280;60991;51.278;22.550;2023-02-28T06:44:31;100619.94;;;1.29;53.95
72855;BME280;60991;51.278;22.550;2023-02-28T06:46:04;100609.28;;;1.30;54.55
72855;BME280;60991;51.278;22.550;2023-02-28T06:47:35;100616.72;;;1.35;54.32
72855;BME280;60991;51.278;22.550;2023-02-28T06:49:06;100608.03;;;1.34;54.40
72855;BME280;60991;51.278;22.550;2023-02-28T06:50:36;100616.50;;;1.28;53.92
72855;BME280;60991;51.278;22.550;2023-02-28T06:52:07;100612.31;;;1.35;53.68
72855;BME280;60991;51.278;22.550;2023-02-28T06:53:37;100610.75;;;1.43;53.59
72855;BME280;60991;51.278;22.550;2023-02-28T06:55:08;100614.34;;;1.42;53.24
72855;BME280;60991;51.278;22.550;2023-02-28T06:56:38;100613.06;;;1.46;53.89
72855;BME280;60991;51.278;22.550;2023-02-28T06:58:09;100609.94;;;1.42;54.03
72855;BME280;60991;51.278;22.550;2023-02-28T06:59:39;100612.25;;;1.45;53.76
72855;BME280;60991;51.278;22.550;2023-02-28T07:01:09;100614.63;;;1.38;53.59
72855;BME280;60991;51.278;22.550;2023-02-28T07:02:40;100618.88;;;1.39;54.02
72855;BME280;60991;51.278;22.550;2023-02-28T07:04:10;100626.31;;;1.44;53.91
72855;BME280;60991;51.278;22.550;2023-02-28T07:05:40;100617.91;;;1.41;53.53
72855;BME280;60991;51.278;22.550;2023-02-28T07:07:10;100622.56;;;1.47;53.39
72855;BME280;60991;51.278;22.550;2023-02-28T07:08:40;100621.13;;;1.52;53.42
72855;BME280;60991;51.278;22.550;2023-02-28T07:10:11;100613.38;;;1.60;53.70
72855;BME280;60991;51.278;22.550;2023-02-28T07:11:41;100615.16;;;1.60;53.13
72855;BME280;60991;51.278;22.550;2023-02-28T07:13:12;100621.81;;;1.54;53.21
72855;BME280;60991;51.278;22.550;2023-02-28T07:14:42;100631.16;;;1.57;53.81
72855;BME280;60991;51.278;22.550;2023-02-28T07:16:12;100623.53;;;1.46;53.54
72855;BME280;60991;51.278;22.550;2023-02-28T07:17:42;100622.09;;;1.51;53.44
72855;BME280;60991;51.278;22.550;2023-02-28T07:19:13;100619.03;;;1.56;53.39
72855;BME280;60991;51.278;22.550;2023-02-28T07:20:43;100628.44;;;1.49;53.57
72855;BME280;60991;51.278;22.550;2023-02-28T07:22:13;100631.53;;;1.62;53.48
72855;BME280;60991;51.278;22.550;2023-02-28T07:23:43;100629.50;;;1.56;53.13
72855;BME280;60991;51.278;22.550;2023-02-28T07:25:14;100628.50;;;1.66;52.86
72855;BME280;60991;51.278;22.550;2023-02-28T07:26:44;100619.63;;;1.67;52.55
72855;BME280;60991;51.278;22.550;2023-02-28T07:28:14;100628.63;;;1.65;52.66
72855;BME280;60991;51.278;22.550;2023-02-28T07:29:44;100622.88;;;1.61;53.22
72855;BME280;60991;51.278;22.550;2023-02-28T07:31:15;100625.41;;;1.71;52.63
72855;BME280;60991;51.278;22.550;2023-02-28T07:32:46;100620.84;;;1.73;53.04
72855;BME280;60991;51.278;22.550;2023-02-28T07:34:16;100621.06;;;1.80;52.69
72855;BME280;60991;51.278;22.550;2023-02-28T07:35:47;100626.16;;;1.81;52.48
72855;BME280;60991;51.278;22.550;2023-02-28T07:37:17;100620.25;;;1.61;53.09
72855;BME280;60991;51.278;22.550;2023-02-28T07:38:48;100626.03;;;1.65;52.79
72855;BME280;60991;51.278;22.550;2023-02-28T07:40:18;100622.34;;;1.76;52.02
72855;BME280;60991;51.278;22.550;2023-02-28T07:41:48;100623.16;;;1.76;52.75
72855;BME280;60991;51.278;22.550;2023-02-28T07:43:18;100619.13;;;1.82;52.35
72855;BME280;60991;51.278;22.550;2023-02-28T07:44:49;100623.91;;;1.86;51.87
72855;BME280;60991;51.278;22.550;2023-02-28T07:46:19;100622.19;;;1.95;52.10
72855;BME280;60991;51.278;22.550;2023-02-28T07:47:49;100609.75;;;1.97;51.42
72855;BME280;60991;51.278;22.550;2023-02-28T07:49:19;100619.94;;;2.00;52.00
72855;BME280;60991;51.278;22.550;2023-02-28T07:50:56;100615.38;;;2.02;52.03
72855;BME280;60991;51.278;22.550;2023-02-28T07:52:27;100617.38;;;2.08;51.79
72855;BME280;60991;51.278;22.550;2023-02-28T07:53:57;100615.78;;;2.15;51.33
72855;BME280;60991;51.278;22.550;2023-02-28T07:55:27;100625.22;;;2.08;52.08
72855;BME280;60991;51.278;22.550;2023-02-28T07:56:57;100623.53;;;1.99;52.71
72855;BME280;60991;51.278;22.550;2023-02-28T07:58:29;100621.63;;;2.09;51.93
72855;BME280;60991;51.278;22.550;2023-02-28T07:59:59;100628.09;;;2.23;51.77
72855;BME280;60991;51.278;22.550;2023-02-28T08:01:29;100625.44;;;2.15;51.63
72855;BME280;60991;51.278;22.550;2023-02-28T08:02:59;100621.25;;;2.22;51.19
72855;BME280;60991;51.278;22.550;2023-02-28T08:04:32;100622.31;;;2.11;51.95
72855;BME280;60991;51.278;22.550;2023-02-28T08:06:06;100624.06;;;2.02;51.81
72855;BME280;60991;51.278;22.550;2023-02-28T08:07:37;100619.25;;;1.98;51.59
72855;BME280;60991;51.278;22.550;2023-02-28T08:09:07;100617.84;;;2.03;51.39
72855;BME280;60991;51.278;22.550;2023-02-28T08:10:37;100612.56;;;2.21;50.86
72855;BME280;60991;51.278;22.550;2023-02-28T08:12:09;100610.81;;;2.30;51.02
72855;BME280;60991;51.278;22.550;2023-02-28T08:13:39;100606.75;;;2.35;50.65
72855;BME280;60991;51.278;22.550;2023-02-28T08:15:10;100618.91;;;2.36;50.41
72855;BME280;60991;51.278;22.550;2023-02-28T08:16:40;100612.19;;;2.42;50.46
72855;BME280;60991;51.278;22.550;2023-02-28T08:18:10;100617.94;;;2.46;50.13
72855;BME280;60991;51.278;22.550;2023-02-28T08:19:40;100613.81;;;2.35;50.69
72855;BME280;60991;51.278;22.550;2023-02-28T08:21:11;100610.47;;;2.07;50.32
72855;BME280;60991;51.278;22.550;2023-02-28T08:22:41;100609.75;;;1.97;51.12
72855;BME280;60991;51.278;22.550;2023-02-28T08:24:11;100607.78;;;2.17;50.74
72855;BME280;60991;51.278;22.550;2023-02-28T08:25:41;100612.09;;;2.26;50.80
72855;BME280;60991;51.278;22.550;2023-02-28T08:27:12;100609.00;;;2.30;49.93
72855;BME280;60991;51.278;22.550;2023-02-28T08:28:42;100612.00;;;2.35;49.34
72855;BME280;60991;51.278;22.550;2023-02-28T08:30:13;100612.84;;;2.36;49.19
72855;BME280;60991;51.278;22.550;2023-02-28T08:31:44;100615.91;;;2.31;49.78
72855;BME280;60991;51.278;22.550;2023-02-28T08:33:14;100604.44;;;2.32;50.05